Time;durP1;ratioP1;P1;durP2;ratioP2;P2;SDS_P1;SDS_P2;PMS_P1;PMS_P2;Temp;Humidity;BMP_temperature;BMP_pressure;BME280_temperature;BME280_humidity;BME280_pressure;Samples;Min_cycle;Max_cycle;Signal;HPM_P1;HPM_P2
2023/07/04 00:01:33;;;;;;;;;;;14.80;99.90;;;;;;5024019;28;19974;-72
2023/07/04 00:04:36;;;;;;;;;;;14.80;99.90;;;;;;5035993;28;20326;-74
2023/07/04 00:07:32;;;;;;;;;;;14.80;99.90;;;;;;4998164;28;19975;-74
2023/07/04 00:13:32;;;;;;;;;;;14.80;99.90;;;;;;5033257;28;19939;-72
2023/07/04 00:16:41;;;;;;;;;;;14.90;99.90;;;;;;4961246;28;19922;-75
2023/07/04 00:19:55;;;;;;;;;;;14.90;99.90;;;;;;4971220;28;19999;-72
2023/07/04 00:25:48;;;;;;;;;;;14.90;99.90;;;;;;4971869;28;20813;-73
2023/07/04 00:28:48;;;;;;;;;;;15.00;99.90;;;;;;4969928;28;20487;-73
2023/07/04 00:34:45;;;;;;;;;;;15.00;99.90;;;;;;4972262;28;19921;-72
2023/07/04 00:41:01;;;;;;;;;;;15.00;99.90;;;;;;4972852;28;19928;-74
2023/07/04 00:44:10;;;;;;;;;;;15.00;99.90;;;;;;4956920;28;20440;-73
2023/07/04 00:47:33;;;;;;;;;;;15.00;99.90;;;;;;4970955;28;19921;-73
2023/07/04 00:50:33;;;;;;;;;;;15.00;99.90;;;;;;4932706;28;19932;-75
2023/07/04 00:54:04;;;;;;;;;;;15.00;99.90;;;;;;4970032;28;20101;-72
2023/07/04 00:56:56;;;;;;;;;;;15.00;99.90;;;;;;4973841;28;19933;-76
2023/07/04 01:02:45;;;;;;;;;;;15.00;99.90;;;;;;4997032;28;20832;-73
2023/07/04 01:08:34;;;;;;;;;;;15.00;99.90;;;;;;4974590;28;19933;-72
2023/07/04 01:11:25;;;;;;;;;;;15.00;99.90;;;;;;4966196;28;19972;-73
2023/07/04 01:14:32;;;;;;;;;;;15.00;99.90;;;;;;4954806;28;20012;-74
2023/07/04 01:21:05;;;;;;;;;;;15.10;99.90;;;;;;4924881;28;19922;-72
2023/07/04 01:23:58;;;;;;;;;;;15.00;99.90;;;;;;4902705;29;20429;-74
2023/07/04 01:26:49;;;;;;;;;;;15.10;99.90;;;;;;4941893;28;19930;-74
2023/07/04 01:30:03;;;;;;;;;;;15.10;99.90;;;;;;5029683;28;20448;-76
2023/07/04 01:32:53;;;;;;;;;;;15.20;99.90;;;;;;5028388;28;20549;-73
2023/07/04 01:39:15;;;;;;;;;;;15.30;99.90;;;;;;5003179;28;20379;-72
2023/07/04 01:42:38;;;;;;;;;;;15.30;99.90;;;;;;5026877;28;19992;-73
2023/07/04 01:45:36;;;;;;;;;;;15.30;99.90;;;;;;5005533;28;19975;-72
2023/07/04 01:48:57;;;;;;;;;;;15.30;99.90;;;;;;5025746;28;19927;-72
2023/07/04 01:51:32;;;;;;;;;;;15.30;99.90;;;;;;5011891;28;19940;-73
2023/07/04 01:54:30;;;;;;;;;;;15.30;99.90;;;;;;5011248;28;19931;-71
2023/07/04 01:57:17;;;;;;;;;;;15.30;99.90;;;;;;5026418;28;20017;-75
2023/07/04 02:00:33;;;;;;;;;;;15.20;99.90;;;;;;5027139;28;19947;-74
2023/07/04 02:03:39;;;;;;;;;;;15.20;99.90;;;;;;5027448;28;19983;-74
2023/07/04 02:06:32;;;;;;;;;;;15.20;99.90;;;;;;5014459;28;20007;-73
2023/07/04 02:09:10;;;;;;;;;;;15.20;99.90;;;;;;5023022;28;19936;-76
2023/07/04 02:11:49;;;;;;;;;;;15.30;99.90;;;;;;5005976;28;19960;-73
2023/07/04 02:15:07;;;;;;;;;;;15.30;99.90;;;;;;5018867;28;19964;-74
2023/07/04 02:17:57;;;;;;;;;;;15.30;99.90;;;;;;4994517;28;19940;-72
2023/07/04 02:20:38;;;;;;;;;;;15.30;99.90;;;;;;4986065;28;19924;-73
2023/07/04 02:23:18;;;;;;;;;;;15.30;99.90;;;;;;4978250;28;19928;-77
2023/07/04 02:29:08;;;;;;;;;;;15.10;99.90;;;;;;5022986;28;19932;-73
2023/07/04 02:32:02;;;;;;;;;;;14.40;99.90;;;;;;4976849;28;19928;-74
2023/07/04 02:35:01;;;;;;;;;;;14.00;99.90;;;;;;5025207;28;20215;-75
2023/07/04 02:38:27;;;;;;;;;;;13.80;99.90;;;;;;4991638;28;20019;-77
2023/07/04 02:41:23;;;;;;;;;;;13.50;99.90;;;;;;4991789;28;19925;-75
2023/07/04 02:44:21;;;;;;;;;;;13.40;99.90;;;;;;5006950;28;20861;-75
2023/07/04 02:47:26;;;;;;;;;;;13.30;99.90;;;;;;5007970;28;20029;-74
2023/07/04 02:50:21;;;;;;;;;;;13.20;99.90;;;;;;4992013;28;20022;-77
2023/07/04 02:56:45;;;;;;;;;;;13.10;99.90;;;;;;5003786;28;20024;-75
2023/07/04 03:00:05;;;;;;;;;;;12.30;99.90;;;;;;5008071;28;19921;-73
2023/07/04 03:03:08;;;;;;;;;;;13.00;99.90;;;;;;5004971;28;19929;-77
2023/07/04 03:08:57;;;;;;;;;;;13.10;99.90;;;;;;4991820;28;19928;-73
2023/07/04 03:12:26;;;;;;;;;;;13.10;99.90;;;;;;5008977;28;20394;-78
2023/07/04 03:15:47;;;;;;;;;;;13.20;99.90;;;;;;5011524;28;19924;-74
2023/07/04 03:19:10;;;;;;;;;;;13.30;99.90;;;;;;4936821;28;19926;-76
2023/07/04 03:27:55;;;;;;;;;;;13.50;99.90;;;;;;5029169;28;19920;-74
2023/07/04 03:31:24;;;;;;;;;;;13.50;99.90;;;;;;5027018;28;19931;-74
2023/07/04 03:34:38;;;;;;;;;;;13.50;99.90;;;;;;5012774;28;20394;-73
2023/07/04 03:41:20;;;;;;;;;;;14.60;99.90;;;;;;5030915;28;19919;-74
2023/07/04 03:43:53;;;;;;;;;;;13.70;99.90;;;;;;5016312;28;19967;-72
2023/07/04 03:46:59;;;;;;;;;;;13.80;99.90;;;;;;4954759;28;19964;-75
2023/07/04 03:50:13;;;;;;;;;;;13.90;99.90;;;;;;4936628;28;19930;-73
2023/07/04 03:53:14;;;;;;;;;;;14.10;99.90;;;;;;5027497;28;19971;-76
2023/07/04 03:55:59;;;;;;;;;;;14.20;99.90;;;;;;5030719;28;19975;-72
2023/07/04 03:59:10;;;;;;;;;;;14.30;99.90;;;;;;5031002;28;19916;-75
2023/07/04 04:01:56;;;;;;;;;;;14.40;99.90;;;;;;4996910;28;19929;-76
2023/07/04 04:04:46;;;;;;;;;;;14.40;99.90;;;;;;5026000;28;20302;-73
2023/07/04 04:07:33;;;;;;;;;;;14.50;99.90;;;;;;5016351;28;19939;-72
2023/07/04 04:10:43;;;;;;;;;;;14.50;99.90;;;;;;5034928;28;20457;-73
2023/07/04 04:13:32;;;;;;;;;;;14.60;99.90;;;;;;5034930;28;19920;-72
2023/07/04 04:19:51;;;;;;;;;;;14.60;99.90;;;;;;5033465;28;20128;-72
2023/07/04 04:22:28;;;;;;;;;;;14.70;99.90;;;;;;5021292;28;20015;-72
2023/07/04 04:24:56;;;;;;;;;;;14.70;99.90;;;;;;5015113;28;19928;-76
2023/07/04 04:28:14;;;;;;;;;;;14.70;99.90;;;;;;5010761;28;20637;-74
2023/07/04 04:31:38;;;;;;;;;;;14.70;99.90;;;;;;4993032;28;19933;-72
2023/07/04 04:40:04;;;;;;;;;;;14.80;99.90;;;;;;4993869;28;19931;-70
2023/07/04 04:42:47;;;;;;;;;;;14.80;99.90;;;;;;5005681;28;20022;-70
2023/07/04 04:45:28;;;;;;;;;;;14.80;99.90;;;;;;4992912;28;19936;-72
2023/07/04 04:48:49;;;;;;;;;;;14.80;99.90;;;;;;5007761;28;20004;-72
2023/07/04 04:51:28;;;;;;;;;;;14.90;99.90;;;;;;5005814;28;20087;-72
2023/07/04 04:54:44;;;;;;;;;;;14.90;99.90;;;;;;4978102;28;19928;-72
2023/07/04 04:57:25;;;;;;;;;;;14.90;99.90;;;;;;4986929;28;19987;-75
2023/07/04 05:00:12;;;;;;;;;;;14.90;99.90;;;;;;5006026;28;19935;-73
2023/07/04 05:03:07;;;;;;;;;;;14.90;99.90;;;;;;5008306;28;19928;-71
2023/07/04 05:05:51;;;;;;;;;;;14.90;99.90;;;;;;4996665;28;19924;-74
2023/07/04 05:08:32;;;;;;;;;;;15.00;99.90;;;;;;4988180;28;19928;-75
2023/07/04 05:11:11;;;;;;;;;;;14.90;99.90;;;;;;4991579;28;20365;-74
2023/07/04 05:13:38;;;;;;;;;;;15.00;99.90;;;;;;5009387;28;19929;-73
2023/07/04 05:16:06;;;;;;;;;;;15.00;99.90;;;;;;5015818;28;19982;-73
2023/07/04 05:18:33;;;;;;;;;;;15.10;99.90;;;;;;5012444;28;19987;-72
2023/07/04 05:21:04;;;;;;;;;;;15.10;99.90;;;;;;5030437;28;19981;-72
2023/07/04 05:23:31;;;;;;;;;;;15.10;99.90;;;;;;5012543;28;20896;-70
2023/07/04 05:26:00;;;;;;;;;;;15.20;99.90;;;;;;5009339;28;20011;-73
2023/07/04 05:28:26;;;;;;;;;;;15.20;99.90;;;;;;5014465;28;19928;-70
2023/07/04 05:31:02;;;;;;;;;;;15.20;99.90;;;;;;4997320;28;19931;-73
2023/07/04 05:33:48;;;;;;;;;;;15.20;99.90;;;;;;5027489;28;19924;-72
2023/07/04 05:36:13;;;;;;;;;;;15.30;99.90;;;;;;5014809;28;19925;-75
2023/07/04 05:38:39;;;;;;;;;;;15.20;99.90;;;;;;5012999;28;20778;-73
2023/07/04 05:41:09;;;;;;;;;;;15.30;99.90;;;;;;5012496;28;19975;-75
2023/07/04 05:43:36;;;;;;;;;;;15.30;99.90;;;;;;4997465;28;19932;-73
2023/07/04 05:46:02;;;;;;;;;;;15.40;99.90;;;;;;5013318;28;19928;-72
2023/07/04 05:48:28;;;;;;;;;;;15.40;99.90;;;;;;5009787;28;19974;-74
2023/07/04 05:50:55;;;;;;;;;;;15.50;99.90;;;;;;5024927;28;19933;-75
2023/07/04 05:53:27;;;;;;;;;;;15.50;99.90;;;;;;5027132;28;19939;-75
2023/07/04 05:56:12;;;;;;;;;;;15.50;99.90;;;;;;5042915;28;19932;-75
2023/07/04 05:58:39;;;;;;;;;;;15.50;99.90;;;;;;5013474;28;19989;-73
2023/07/04 06:01:24;;;;;;;;;;;15.60;99.90;;;;;;5009241;28;19928;-77
2023/07/04 06:03:54;;;;;;;;;;;15.60;99.90;;;;;;5026480;28;19924;-70
2023/07/04 06:06:26;;;;;;;;;;;15.60;99.90;;;;;;4997438;28;20378;-70
2023/07/04 06:08:53;;;;;;;;;;;16.40;99.90;;;;;;5012509;28;19936;-74
2023/07/04 06:11:26;;;;;;;;;;;15.60;99.90;;;;;;5006030;28;19920;-73
2023/07/04 06:13:51;;;;;;;;;;;15.60;99.90;;;;;;5028409;28;19932;-73
2023/07/04 06:16:18;;;;;;;;;;;15.60;99.90;;;;;;5028449;28;20238;-73
2023/07/04 06:18:44;;;;;;;;;;;15.60;99.90;;;;;;5026286;28;20299;-71
2023/07/04 06:21:11;;;;;;;;;;;15.60;99.90;;;;;;4996408;28;19978;-71
2023/07/04 06:23:38;;;;;;;;;;;15.70;99.90;;;;;;5027487;28;19929;-70
2023/07/04 06:26:05;;;;;;;;;;;15.70;99.90;;;;;;5039896;28;20251;-71
2023/07/04 06:28:38;;;;;;;;;;;15.80;99.90;;;;;;5011826;28;19939;-70
2023/07/04 06:31:11;;;;;;;;;;;15.80;99.90;;;;;;4993342;28;20015;-75
2023/07/04 06:33:36;;;;;;;;;;;15.90;99.90;;;;;;5013112;28;19925;-73
2023/07/04 06:36:02;;;;;;;;;;;16.00;99.90;;;;;;5010109;28;19927;-71
2023/07/04 06:38:28;;;;;;;;;;;16.00;99.90;;;;;;5026757;28;20824;-71
2023/07/04 06:40:54;;;;;;;;;;;16.00;99.90;;;;;;5008226;28;19980;-71
2023/07/04 06:43:20;;;;;;;;;;;16.00;99.90;;;;;;5009918;28;19936;-73
2023/07/04 06:45:48;;;;;;;;;;;16.10;99.90;;;;;;5010530;28;20434;-72
2023/07/04 06:48:14;;;;;;;;;;;16.20;99.90;;;;;;5009106;28;19935;-73
2023/07/04 06:50:42;;;;;;;;;;;16.30;99.90;;;;;;5025068;28;20066;-72
2023/07/04 06:53:08;;;;;;;;;;;16.60;99.90;;;;;;5025500;28;19924;-73
2023/07/04 06:55:42;;;;;;;;;;;16.60;99.90;;;;;;5010707;28;19948;-71
2023/07/04 06:58:08;;;;;;;;;;;16.60;99.90;;;;;;5025875;28;20460;-73
2023/07/04 07:00:34;;;;;;;;;;;16.10;99.90;;;;;;5011742;28;20489;-72
2023/07/04 07:03:04;;;;;;;;;;;16.70;99.90;;;;;;5025689;28;19927;-71
2023/07/04 07:05:31;;;;;;;;;;;16.80;99.90;;;;;;4972795;28;19956;-73
2023/07/04 07:07:57;;;;;;;;;;;16.80;99.90;;;;;;4986457;28;21509;-72
2023/07/04 07:10:22;;;;;;;;;;;16.90;99.90;;;;;;4977659;28;20004;-73
2023/07/04 07:12:49;;;;;;;;;;;16.90;99.90;;;;;;4967879;28;19936;-73
2023/07/04 07:15:18;;;;;;;;;;;16.90;99.90;;;;;;5000879;28;19947;-72
2023/07/04 07:17:46;;;;;;;;;;;16.90;99.90;;;;;;4983597;28;19929;-73
2023/07/04 07:20:13;;;;;;;;;;;16.90;99.90;;;;;;4953923;28;19936;-73
2023/07/04 07:22:39;;;;;;;;;;;16.90;99.90;;;;;;4968254;28;20395;-73
2023/07/04 07:25:09;;;;;;;;;;;17.00;99.90;;;;;;4970932;28;19984;-71
2023/07/04 07:27:35;;;;;;;;;;;17.10;99.90;;;;;;4970324;28;19929;-71
2023/07/04 07:30:00;;;;;;;;;;;17.10;99.90;;;;;;4983912;28;19964;-71
2023/07/04 07:32:32;;;;;;;;;;;17.20;99.90;;;;;;4969795;28;19972;-74
2023/07/04 07:34:57;;;;;;;;;;;17.20;99.90;;;;;;4999627;28;19930;-73
2023/07/04 07:37:23;;;;;;;;;;;17.20;99.90;;;;;;5020182;28;19931;-71
2023/07/04 07:39:51;;;;;;;;;;;17.20;99.90;;;;;;5009711;28;19925;-71
2023/07/04 07:42:20;;;;;;;;;;;17.10;99.90;;;;;;5028113;28;19983;-73
2023/07/04 07:44:46;;;;;;;;;;;17.20;99.90;;;;;;5016452;28;20003;-74
2023/07/04 07:47:12;;;;;;;;;;;17.20;99.90;;;;;;5028198;28;20318;-73
2023/07/04 07:49:44;;;;;;;;;;;17.10;99.90;;;;;;5003939;28;19929;-77
2023/07/04 07:52:15;;;;;;;;;;;17.00;99.90;;;;;;4997770;28;19947;-71
2023/07/04 07:54:42;;;;;;;;;;;16.90;99.90;;;;;;4998298;28;20702;-73
2023/07/04 07:57:07;;;;;;;;;;;16.90;99.90;;;;;;5000034;28;19925;-75
2023/07/04 07:59:33;;;;;;;;;;;16.90;99.90;;;;;;4987149;28;19932;-72
2023/07/04 08:01:59;;;;;;;;;;;16.90;99.90;;;;;;4998897;28;20642;-74
2023/07/04 08:04:25;;;;;;;;;;;17.10;99.90;;;;;;5019226;28;20030;-73
2023/07/04 08:06:51;;;;;;;;;;;17.30;99.90;;;;;;5020757;28;19944;-71
2023/07/04 08:09:17;;;;;;;;;;;17.50;99.90;;;;;;5034277;28;19932;-72
2023/07/04 08:11:45;;;;;;;;;;;17.80;99.90;;;;;;5021833;28;19931;-70
2023/07/04 08:14:17;;;;;;;;;;;17.80;99.90;;;;;;5020056;28;20428;-71
2023/07/04 08:16:45;;;;;;;;;;;17.70;99.90;;;;;;5035313;28;19924;-71
2023/07/04 08:19:26;;;;;;;;;;;18.00;99.90;;;;;;5032807;28;20019;-71
2023/07/04 08:21:57;;;;;;;;;;;18.30;99.90;;;;;;5018533;28;19920;-74
2023/07/04 08:24:25;;;;;;;;;;;18.50;99.90;;;;;;5034511;28;19971;-71
2023/07/04 08:26:52;;;;;;;;;;;18.70;99.90;;;;;;5021561;28;19987;-74
2023/07/04 08:29:18;;;;;;;;;;;18.80;99.90;;;;;;5017314;28;19929;-78
2023/07/04 08:31:44;;;;;;;;;;;18.80;99.90;;;;;;5015549;28;19927;-73
2023/07/04 08:34:10;;;;;;;;;;;18.90;99.90;;;;;;5016300;28;20007;-74
2023/07/04 08:36:37;;;;;;;;;;;19.10;99.90;;;;;;5032992;28;19947;-73
2023/07/04 08:39:09;;;;;;;;;;;18.90;99.90;;;;;;5015834;28;20006;-75
2023/07/04 08:41:41;;;;;;;;;;;19.00;99.90;;;;;;5046507;28;19929;-73
2023/07/04 08:44:20;;;;;;;;;;;18.90;99.90;;;;;;5014309;28;19936;-73
2023/07/04 08:46:47;;;;;;;;;;;19.10;99.90;;;;;;5016452;28;20365;-72
2023/07/04 08:49:25;;;;;;;;;;;19.10;99.90;;;;;;4999484;28;19929;-73
2023/07/04 08:52:06;;;;;;;;;;;19.10;99.90;;;;;;5018518;28;19921;-71
2023/07/04 08:54:33;;;;;;;;;;;19.30;99.90;;;;;;5021103;28;19944;-71
2023/07/04 08:57:03;;;;;;;;;;;19.50;99.90;;;;;;5021245;28;20027;-74
2023/07/04 08:59:37;;;;;;;;;;;19.60;99.90;;;;;;5034071;28;20086;-71
2023/07/04 09:02:02;;;;;;;;;;;19.60;99.90;;;;;;5018534;28;19928;-74
2023/07/04 09:04:36;;;;;;;;;;;19.80;99.90;;;;;;5018754;28;19925;-70
2023/07/04 09:07:28;;;;;;;;;;;19.90;99.90;;;;;;5034241;28;19928;-72
2023/07/04 09:10:02;;;;;;;;;;;20.20;99.90;;;;;;5013236;28;19924;-71
2023/07/04 09:12:32;;;;;;;;;;;19.80;99.90;;;;;;5035733;28;19936;-71
2023/07/04 09:15:00;;;;;;;;;;;19.40;99.90;;;;;;5034317;28;19928;-72
2023/07/04 09:17:31;;;;;;;;;;;19.30;99.90;;;;;;5019675;28;19925;-72
2023/07/04 09:19:57;;;;;;;;;;;19.40;99.90;;;;;;5022320;28;19925;-72
2023/07/04 09:22:22;;;;;;;;;;;19.60;99.90;;;;;;5021533;28;19985;-71
2023/07/04 09:24:48;;;;;;;;;;;19.30;99.90;;;;;;5029049;28;20371;-72
2023/07/04 09:27:14;;;;;;;;;;;19.20;99.90;;;;;;5021384;28;19976;-72
2023/07/04 09:29:48;;;;;;;;;;;19.00;99.90;;;;;;5002464;28;19921;-73
2023/07/04 09:32:16;;;;;;;;;;;19.00;99.90;;;;;;5046960;28;19947;-74
2023/07/04 09:35:07;;;;;;;;;;;19.10;99.90;;;;;;5031692;28;19936;-74
2023/07/04 09:37:54;;;;;;;;;;;19.40;99.90;;;;;;5026499;28;19932;-72
2023/07/04 09:40:37;;;;;;;;;;;19.50;99.90;;;;;;5016596;28;19928;-72
2023/07/04 09:43:03;;;;;;;;;;;19.10;99.90;;;;;;5017828;28;19931;-73
2023/07/04 09:45:28;;;;;;;;;;;19.20;99.90;;;;;;5024779;28;20294;-72
2023/07/04 09:47:55;;;;;;;;;;;19.40;99.90;;;;;;5021889;28;19933;-70
2023/07/04 09:50:29;;;;;;;;;;;19.80;99.90;;;;;;5024401;28;20291;-74
2023/07/04 09:53:13;;;;;;;;;;;20.10;99.90;;;;;;5037037;28;19929;-72
2023/07/04 09:55:39;;;;;;;;;;;20.10;99.90;;;;;;5023552;28;20004;-70
2023/07/04 09:58:14;;;;;;;;;;;20.00;99.90;;;;;;5026497;28;19920;-71
2023/07/04 10:00:43;;;;;;;;;;;20.10;99.90;;;;;;5035029;28;20343;-71
2023/07/04 10:03:09;;;;;;;;;;;20.30;99.90;;;;;;5035248;28;19925;-71
2023/07/04 10:05:35;;;;;;;;;;;20.60;99.90;;;;;;5025759;28;19928;-76
2023/07/04 10:08:12;;;;;;;;;;;20.70;99.90;;;;;;5023617;28;19970;-73
2023/07/04 10:10:58;;;;;;;;;;;20.80;99.90;;;;;;4962516;28;19928;-75
2023/07/04 10:13:26;;;;;;;;;;;21.00;99.90;;;;;;5027541;28;19928;-73
2023/07/04 10:15:57;;;;;;;;;;;21.40;99.90;;;;;;5033282;28;19927;-73
2023/07/04 10:18:30;;;;;;;;;;;21.20;99.90;;;;;;5050613;28;19974;-73
2023/07/04 10:21:00;;;;;;;;;;;21.20;99.90;;;;;;5036171;28;19932;-72
2023/07/04 10:23:44;;;;;;;;;;;20.00;99.90;;;;;;5024507;28;19928;-73
2023/07/04 10:26:12;;;;;;;;;;;20.80;99.90;;;;;;5036955;28;19916;-73
2023/07/04 10:28:47;;;;;;;;;;;20.50;99.90;;;;;;4986850;28;19999;-73
2023/07/04 10:31:21;;;;;;;;;;;20.70;99.90;;;;;;5020708;28;19964;-72
2023/07/04 10:33:50;;;;;;;;;;;20.80;99.90;;;;;;5007713;28;19929;-77
2023/07/04 10:36:20;;;;;;;;;;;21.00;99.90;;;;;;5015143;28;20379;-74
2023/07/04 10:38:49;;;;;;;;;;;21.10;99.90;;;;;;5035159;28;20391;-73
2023/07/04 10:41:23;;;;;;;;;;;21.20;99.40;;;;;;5001758;28;19987;-73
2023/07/04 10:43:56;;;;;;;;;;;21.10;99.30;;;;;;5020343;28;19924;-76
2023/07/04 10:46:28;;;;;;;;;;;21.30;99.40;;;;;;5020486;28;20003;-75
2023/07/04 10:49:07;;;;;;;;;;;20.90;99.60;;;;;;5016665;28;19972;-73
2023/07/04 10:51:38;;;;;;;;;;;20.80;99.60;;;;;;5018494;28;20298;-72
2023/07/04 10:54:07;;;;;;;;;;;20.80;99.10;;;;;;5036401;28;19932;-73
2023/07/04 10:56:49;;;;;;;;;;;21.00;99.40;;;;;;5047506;28;19920;-73
2023/07/04 10:59:29;;;;;;;;;;;21.00;99.40;;;;;;5032235;28;19929;-74
2023/07/04 11:02:06;;;;;;;;;;;21.20;99.50;;;;;;5001506;28;19931;-76
2023/07/04 11:04:41;;;;;;;;;;;21.30;99.60;;;;;;5048324;28;19925;-73
2023/07/04 11:07:19;;;;;;;;;;;21.20;98.70;;;;;;5035286;28;19921;-73
2023/07/04 11:10:06;;;;;;;;;;;21.40;99.00;;;;;;5002428;28;19940;-73
2023/07/04 11:12:33;;;;;;;;;;;21.70;98.80;;;;;;5035062;28;19936;-73
2023/07/04 11:15:03;;;;;;;;;;;21.80;98.60;;;;;;5031586;28;19928;-75
2023/07/04 11:17:52;;;;;;;;;;;21.90;98.40;;;;;;5046309;28;20019;-74
2023/07/04 11:20:22;;;;;;;;;;;21.80;98.40;;;;;;5018439;28;19951;-74
2023/07/04 11:23:14;;;;;;;;;;;21.90;98.70;;;;;;5017689;28;19992;-76
2023/07/04 11:26:44;;;;;;;;;;;22.00;98.60;;;;;;5038615;28;19919;-74
2023/07/04 11:30:07;;;;;;;;;;;21.80;98.60;;;;;;5038123;28;19929;-74
2023/07/04 11:33:42;;;;;;;;;;;21.90;98.70;;;;;;5041176;28;19973;-74
2023/07/04 11:36:55;;;;;;;;;;;22.00;97.60;;;;;;5028742;28;20235;-75
2023/07/04 11:39:49;;;;;;;;;;;22.00;97.90;;;;;;5016434;28;20011;-77
2023/07/04 11:42:37;;;;;;;;;;;22.20;98.00;;;;;;5043933;28;19932;-75
2023/07/04 11:48:40;;;;;;;;;;;22.30;97.90;;;;;;5041662;28;20299;-74
2023/07/04 11:52:05;;;;;;;;;;;22.50;98.00;;;;;;5040476;28;20329;-75
2023/07/04 11:54:57;;;;;;;;;;;22.60;97.80;;;;;;5030101;28;19932;-74
2023/07/04 11:58:02;;;;;;;;;;;22.50;97.60;;;;;;5038770;28;19963;-74
2023/07/04 12:01:02;;;;;;;;;;;22.40;97.50;;;;;;5039010;28;19938;-75
2023/07/04 12:03:48;;;;;;;;;;;22.40;97.30;;;;;;5003038;28;19967;-74
2023/07/04 12:07:12;;;;;;;;;;;22.40;97.40;;;;;;5018177;28;20039;-74
2023/07/04 12:10:20;;;;;;;;;;;22.60;97.20;;;;;;5019038;28;20402;-74
2023/07/04 12:13:49;;;;;;;;;;;22.80;97.10;;;;;;4968694;28;20268;-74
2023/07/04 12:16:30;;;;;;;;;;;22.90;97.00;;;;;;4960522;28;20028;-75
2023/07/04 12:19:37;;;;;;;;;;;22.70;96.70;;;;;;4967797;28;19933;-74
2023/07/04 12:22:36;;;;;;;;;;;22.60;96.70;;;;;;4949706;28;19926;-74
2023/07/04 12:35:52;;;;;;;;;;;22.40;96.50;;;;;;4974864;28;19926;-74
2023/07/04 12:38:18;;;;;;;;;;;22.60;96.80;;;;;;4976451;28;20008;-74
2023/07/04 12:41:35;;;;;;;;;;;22.60;96.60;;;;;;4947221;28;19922;-74
2023/07/04 12:44:13;;;;;;;;;;;22.50;96.70;;;;;;4942911;28;20345;-73
2023/07/04 12:47:21;;;;;;;;;;;22.30;96.70;;;;;;4967932;28;19930;-73
2023/07/04 12:50:30;;;;;;;;;;;22.50;96.80;;;;;;4972617;28;19984;-73
2023/07/04 12:53:32;;;;;;;;;;;22.50;96.10;;;;;;5031117;28;19968;-74
2023/07/04 12:56:18;;;;;;;;;;;22.50;96.20;;;;;;5002584;28;20036;-74
2023/07/04 13:03:16;;;;;;;;;;;22.20;96.40;;;;;;4964541;28;20297;-74
2023/07/04 13:06:14;;;;;;;;;;;22.40;96.40;;;;;;4949026;28;19958;-73
2023/07/04 13:09:26;;;;;;;;;;;22.30;96.50;;;;;;4924864;29;19922;-74
2023/07/04 13:13:10;;;;;;;;;;;22.20;96.40;;;;;;4925001;29;19937;-74
2023/07/04 13:16:20;;;;;;;;;;;22.10;96.70;;;;;;4910069;29;19962;-74
2023/07/04 13:19:39;;;;;;;;;;;22.30;96.20;;;;;;4887664;29;19926;-75
2023/07/04 13:22:25;;;;;;;;;;;22.20;96.50;;;;;;4954282;28;20342;-73
2023/07/04 13:25:23;;;;;;;;;;;22.20;96.60;;;;;;4966367;28;19925;-73
2023/07/04 13:28:36;;;;;;;;;;;22.30;96.60;;;;;;4965867;28;20322;-74
2023/07/04 13:34:51;;;;;;;;;;;22.20;95.90;;;;;;4932800;28;19936;-74
2023/07/04 13:37:42;;;;;;;;;;;22.00;96.20;;;;;;5036749;28;20447;-71
2023/07/04 13:40:14;;;;;;;;;;;22.10;96.20;;;;;;5035556;28;19931;-72
2023/07/04 13:42:40;;;;;;;;;;;22.00;96.00;;;;;;5020140;28;19924;-71
2023/07/04 13:45:07;;;;;;;;;;;22.10;95.90;;;;;;5042927;28;19933;-70
2023/07/04 13:47:33;;;;;;;;;;;22.00;95.60;;;;;;5018438;28;20730;-70
2023/07/04 13:50:02;;;;;;;;;;;22.20;95.80;;;;;;5008295;28;19998;-72
2023/07/04 13:52:28;;;;;;;;;;;22.30;95.10;;;;;;5019333;28;19935;-71
2023/07/04 13:54:54;;;;;;;;;;;22.40;95.70;;;;;;5015773;28;19925;-70
2023/07/04 13:57:25;;;;;;;;;;;22.40;95.90;;;;;;4999709;28;19952;-71
2023/07/04 13:59:51;;;;;;;;;;;22.40;96.10;;;;;;5022306;28;20023;-73
2023/07/04 14:02:24;;;;;;;;;;;22.40;95.60;;;;;;5019656;28;19971;-70
2023/07/04 14:04:50;;;;;;;;;;;22.50;95.50;;;;;;5000299;28;19925;-71
2023/07/04 14:07:18;;;;;;;;;;;22.40;95.70;;;;;;5005718;28;19925;-70
2023/07/04 14:09:44;;;;;;;;;;;22.30;96.10;;;;;;5033355;28;20350;-71
2023/07/04 14:12:12;;;;;;;;;;;22.30;96.10;;;;;;5033764;28;20067;-70
2023/07/04 14:14:38;;;;;;;;;;;22.40;96.00;;;;;;5026395;28;20364;-72
2023/07/04 14:17:04;;;;;;;;;;;22.40;96.10;;;;;;5023226;28;20681;-70
2023/07/04 14:19:30;;;;;;;;;;;22.50;95.90;;;;;;5005040;28;19928;-71
2023/07/04 14:21:56;;;;;;;;;;;22.40;95.90;;;;;;5034970;28;19954;-73
2023/07/04 14:24:23;;;;;;;;;;;22.10;95.80;;;;;;5022135;28;20319;-73
2023/07/04 14:27:02;;;;;;;;;;;22.20;96.10;;;;;;5036474;28;19932;-72
2023/07/04 14:29:31;;;;;;;;;;;22.20;96.10;;;;;;5035514;28;19924;-70
2023/07/04 14:32:06;;;;;;;;;;;22.00;95.80;;;;;;5036818;28;19928;-71
2023/07/04 14:34:38;;;;;;;;;;;21.90;95.80;;;;;;5017871;28;19921;-72
2023/07/04 14:37:13;;;;;;;;;;;21.80;95.70;;;;;;5050733;28;19960;-70
2023/07/04 14:39:50;;;;;;;;;;;21.60;95.70;;;;;;5024736;28;19971;-71
2023/07/04 14:42:17;;;;;;;;;;;21.50;95.80;;;;;;5026143;28;19975;-70
2023/07/04 14:44:48;;;;;;;;;;;21.70;96.40;;;;;;5049926;28;19925;-71
2023/07/04 14:47:14;;;;;;;;;;;21.90;96.40;;;;;;5002795;28;19928;-72
2023/07/04 14:49:47;;;;;;;;;;;21.90;96.20;;;;;;5025014;28;19986;-71
2023/07/04 14:52:16;;;;;;;;;;;22.00;96.30;;;;;;5018009;28;20405;-70
2023/07/04 14:54:41;;;;;;;;;;;22.20;96.50;;;;;;5002723;28;19921;-71
2023/07/04 14:57:11;;;;;;;;;;;22.30;96.50;;;;;;5018766;28;19929;-71
2023/07/04 14:59:46;;;;;;;;;;;22.40;94.90;;;;;;5003602;28;19939;-70
2023/07/04 15:02:12;;;;;;;;;;;22.50;95.70;;;;;;5024147;28;19932;-71
2023/07/04 15:04:39;;;;;;;;;;;22.40;95.70;;;;;;5021041;28;21609;-70
2023/07/04 15:07:15;;;;;;;;;;;22.30;95.30;;;;;;5017672;28;19928;-72
2023/07/04 15:09:41;;;;;;;;;;;22.30;95.70;;;;;;5023030;28;20071;-71
2023/07/04 15:12:10;;;;;;;;;;;22.20;95.50;;;;;;5021229;28;19941;-73
2023/07/04 15:14:44;;;;;;;;;;;22.10;95.10;;;;;;5037661;28;19925;-71
2023/07/04 15:17:21;;;;;;;;;;;21.20;94.50;;;;;;5024176;28;19950;-73
2023/07/04 15:19:51;;;;;;;;;;;22.10;95.00;;;;;;5011196;28;19932;-70
2023/07/04 15:22:18;;;;;;;;;;;22.00;94.90;;;;;;5019765;28;19932;-71
2023/07/04 15:24:54;;;;;;;;;;;21.80;95.10;;;;;;5020030;28;20015;-70
2023/07/04 15:27:27;;;;;;;;;;;21.80;95.40;;;;;;5018712;28;19956;-74
2023/07/04 15:29:53;;;;;;;;;;;21.70;95.60;;;;;;5018447;28;19982;-71
2023/07/04 15:32:20;;;;;;;;;;;21.70;95.70;;;;;;5034972;28;19954;-70
2023/07/04 15:34:49;;;;;;;;;;;21.40;95.60;;;;;;5022967;28;19928;-73
2023/07/04 15:37:24;;;;;;;;;;;21.30;95.70;;;;;;5020133;28;20294;-70
2023/07/04 15:40:00;;;;;;;;;;;21.20;95.90;;;;;;5021875;28;19959;-72
2023/07/04 15:45:15;;;;;;;;;;;21.10;96.70;;;;;;5034926;28;19928;-71
2023/07/04 15:47:54;;;;;;;;;;;20.80;96.70;;;;;;5033009;28;19924;-72
2023/07/04 15:50:25;;;;;;;;;;;20.80;97.20;;;;;;5034910;28;19933;-71
2023/07/04 15:52:52;;;;;;;;;;;20.60;97.40;;;;;;5006424;28;20450;-71
2023/07/04 15:55:37;;;;;;;;;;;19.70;97.10;;;;;;5032938;28;19970;-71
2023/07/04 15:58:19;;;;;;;;;;;20.40;97.50;;;;;;5034293;28;19932;-70
2023/07/04 16:00:53;;;;;;;;;;;20.30;97.90;;;;;;5000911;28;19966;-72
2023/07/04 16:03:37;;;;;;;;;;;20.20;98.00;;;;;;5031541;28;20468;-71
2023/07/04 16:06:06;;;;;;;;;;;20.00;98.20;;;;;;5020128;28;19939;-72
2023/07/04 16:08:37;;;;;;;;;;;19.90;98.70;;;;;;5035669;28;19927;-71
2023/07/04 16:11:16;;;;;;;;;;;19.80;98.70;;;;;;5034919;28;20287;-70
2023/07/04 16:13:43;;;;;;;;;;;19.70;98.90;;;;;;5018487;28;20419;-71
2023/07/04 16:16:11;;;;;;;;;;;19.70;99.20;;;;;;5002134;28;19952;-70
2023/07/04 16:18:52;;;;;;;;;;;19.70;99.30;;;;;;5036158;28;20417;-73
2023/07/04 16:21:22;;;;;;;;;;;19.80;99.20;;;;;;5019194;28;19955;-72
2023/07/04 16:23:55;;;;;;;;;;;19.80;98.80;;;;;;5034356;28;20303;-72
2023/07/04 16:26:27;;;;;;;;;;;19.80;98.70;;;;;;5018371;28;20718;-73
2023/07/04 16:28:54;;;;;;;;;;;19.80;98.60;;;;;;5020366;28;19950;-71
2023/07/04 16:31:19;;;;;;;;;;;19.80;98.50;;;;;;5014211;28;19932;-73
2023/07/04 16:33:46;;;;;;;;;;;19.70;98.50;;;;;;5014557;28;19925;-71
2023/07/04 16:36:15;;;;;;;;;;;19.60;98.30;;;;;;5015915;28;20408;-70
2023/07/04 16:38:43;;;;;;;;;;;19.60;98.40;;;;;;5001087;28;20239;-71
2023/07/04 16:41:10;;;;;;;;;;;19.60;98.40;;;;;;4986522;28;19924;-71
2023/07/04 16:43:52;;;;;;;;;;;19.40;98.10;;;;;;5013234;28;20011;-74
2023/07/04 16:49:05;;;;;;;;;;;19.20;98.00;;;;;;4998728;28;19933;-70
2023/07/04 16:51:32;;;;;;;;;;;19.10;98.20;;;;;;4998523;28;19928;-71
2023/07/04 16:54:04;;;;;;;;;;;18.30;97.90;;;;;;4996621;28;19929;-71
2023/07/04 16:56:31;;;;;;;;;;;18.90;98.10;;;;;;4998058;28;19931;-70